Westville, Ohio
Current Conditions -  °F | °C
As of 2:56 PM on Friday 21 Nov 2014 (Local Time) from KSGH Reporting Station
Clear Clear  
Wind Chill: 21°   Ceiling: Unl
Heat Index: 27°   Visibility: 8mi
Dew Point: 12°   Wind: 6mph
Humidity: 53%   Direction: 140°SE
Pressure: 30.48"   Gusts: NA
Location:  40.1°N, 83.83°W
Report Text: KSGH 211956Z AUTO 14005KT 8SM CLR M03/M11 A3048 RMK AO2 T10271111 SLP337 $
Loading
Personal Weather Stations






























Interactive Weather Map New forecast layout! Learn more

10-Day Weather Forecast

Advertisements
Track Severe Weather on mobile